createdAt,value
2022-10-22T00:01:02.213Z,4.78
2022-10-22T00:03:29.173Z,5.00
2022-10-22T00:05:56.235Z,4.87
2022-10-22T00:08:23.064Z,6.78
2022-10-22T00:10:49.984Z,5.47
2022-10-22T00:13:17.145Z,4.82
2022-10-22T00:15:44.036Z,4.50
2022-10-22T00:18:10.929Z,4.40
2022-10-22T00:20:37.835Z,5.32
2022-10-22T00:23:04.841Z,4.72
2022-10-22T00:25:34.077Z,4.32
2022-10-22T00:28:01.122Z,3.80
2022-10-22T00:30:28.044Z,4.25
2022-10-22T00:32:54.851Z,4.80
2022-10-22T00:35:21.747Z,4.45
2022-10-22T00:37:48.770Z,4.43
2022-10-22T00:40:15.609Z,3.73
2022-10-22T00:42:42.871Z,4.53
2022-10-22T00:45:09.998Z,4.12
2022-10-22T00:47:45.252Z,3.78
2022-10-22T00:50:17.689Z,4.28
2022-10-22T00:52:44.865Z,3.73
2022-10-22T00:55:12.437Z,4.20
2022-10-22T00:57:39.560Z,3.90
2022-10-22T01:00:06.962Z,4.32
2022-10-22T01:02:34.406Z,3.90
2022-10-22T01:05:01.452Z,4.00
2022-10-22T01:07:28.533Z,3.90
2022-10-22T01:10:32.790Z,3.83
2022-10-22T01:13:23.883Z,3.75
2022-10-22T01:16:17.994Z,4.20
2022-10-22T01:19:28.954Z,3.70
2022-10-22T01:22:24.439Z,3.90
2022-10-22T01:25:16.635Z,3.70
2022-10-22T01:28:12.675Z,3.97
2022-10-22T01:30:40.805Z,3.53
2022-10-22T01:33:11.566Z,3.17
2022-10-22T01:35:43.268Z,3.37
2022-10-22T01:38:15.033Z,3.50
2022-10-22T01:40:43.213Z,3.60
2022-10-22T01:43:11.577Z,3.55
2022-10-22T01:45:59.205Z,3.43
2022-10-22T01:48:50.239Z,3.92
2022-10-22T01:51:41.415Z,3.65
2022-10-22T01:54:40.534Z,3.20
2022-10-22T01:57:12.450Z,3.10
2022-10-22T02:00:13.744Z,3.27
2022-10-22T02:05:22.562Z,3.40
2022-10-22T02:07:54.420Z,3.45
2022-10-22T02:10:23.285Z,3.95
2022-10-22T02:12:53.333Z,3.70
2022-10-22T02:15:22.433Z,3.87
2022-10-22T02:17:50.813Z,3.75
2022-10-22T02:20:22.806Z,3.75
2022-10-22T02:22:50.199Z,3.35
2022-10-22T02:25:17.304Z,3.27
2022-10-22T02:27:50.124Z,3.12
2022-10-22T02:30:22.242Z,3.40
2022-10-22T02:33:07.732Z,3.58
2022-10-22T02:35:36.315Z,3.50
2022-10-22T02:38:04.020Z,3.40
2022-10-22T02:40:31.499Z,3.40
2022-10-22T02:42:58.295Z,3.70
2022-10-22T02:45:25.443Z,3.70
2022-10-22T02:47:52.503Z,3.47
2022-10-22T02:50:19.244Z,3.60
2022-10-22T02:52:46.041Z,3.87
2022-10-22T02:55:12.863Z,3.55
2022-10-22T02:57:39.908Z,3.60
2022-10-22T03:00:08.671Z,3.85
2022-10-22T03:02:35.483Z,3.80
2022-10-22T03:05:02.501Z,3.33
2022-10-22T03:07:29.447Z,3.85
2022-10-22T03:09:56.263Z,4.10
2022-10-22T03:12:23.136Z,3.72
2022-10-22T03:14:49.924Z,3.63
2022-10-22T03:17:16.710Z,3.90
2022-10-22T03:19:45.945Z,3.90
2022-10-22T03:22:20.332Z,3.85
2022-10-22T03:24:53.470Z,3.67
2022-10-22T03:27:22.226Z,4.43
2022-10-22T03:29:51.596Z,4.05
2022-10-22T03:32:18.805Z,3.87
2022-10-22T03:34:45.718Z,4.15
2022-10-22T03:37:12.725Z,4.18
2022-10-22T03:39:40.220Z,4.53
2022-10-22T03:42:08.051Z,4.18
2022-10-22T03:44:38.353Z,3.75
2022-10-22T03:47:05.669Z,4.30
2022-10-22T03:49:32.824Z,4.70
2022-10-22T03:52:08.869Z,4.40
2022-10-22T03:54:36.264Z,4.18
2022-10-22T03:57:04.796Z,4.82
2022-10-22T03:59:36.779Z,4.32
2022-10-22T04:02:03.979Z,4.35
2022-10-22T04:04:31.174Z,4.30
2022-10-22T04:06:58.053Z,4.57
2022-10-22T04:09:25.034Z,4.95
2022-10-22T04:11:51.779Z,4.80
2022-10-22T04:14:18.588Z,4.25
2022-10-22T04:16:45.393Z,4.87
2022-10-22T04:19:13.275Z,4.72
2022-10-22T04:21:40.093Z,4.30
2022-10-22T04:24:07.093Z,4.85
2022-10-22T04:26:33.934Z,5.05
2022-10-22T04:29:00.798Z,4.33
2022-10-22T04:31:27.863Z,4.80
2022-10-22T04:33:57.450Z,4.47
2022-10-22T04:36:25.585Z,4.93
2022-10-22T04:38:55.342Z,4.53
2022-10-22T04:41:29.844Z,5.10
2022-10-22T04:43:57.818Z,4.50
2022-10-22T04:46:28.783Z,4.90
2022-10-22T04:48:55.576Z,5.05
2022-10-22T04:51:24.158Z,5.53
2022-10-22T04:53:51.136Z,5.30
2022-10-22T04:56:21.091Z,6.47
2022-10-22T04:58:50.283Z,5.70
2022-10-22T05:01:22.937Z,5.10
2022-10-22T05:03:51.470Z,5.82
2022-10-22T05:06:20.983Z,5.20
2022-10-22T05:08:52.101Z,5.10
2022-10-22T05:11:24.781Z,5.50
2022-10-22T05:13:51.746Z,5.35
2022-10-22T05:16:18.465Z,6.93
2022-10-22T05:18:45.956Z,6.70
2022-10-22T05:21:15.401Z,6.95
2022-10-22T05:23:43.868Z,6.82
2022-10-22T05:26:12.881Z,6.43
2022-10-22T05:28:40.368Z,6.50
2022-10-22T05:31:10.344Z,6.57
2022-10-22T05:33:37.214Z,6.55
2022-10-22T05:36:06.883Z,7.45
2022-10-22T05:38:35.646Z,8.02
2022-10-22T05:41:16.937Z,6.97
2022-10-22T05:43:44.132Z,7.90
2022-10-22T05:46:14.991Z,6.68
2022-10-22T05:48:44.745Z,6.80
2022-10-22T05:51:13.672Z,6.62
2022-10-22T05:53:42.380Z,6.80
2022-10-22T05:56:13.739Z,7.60
2022-10-22T05:58:40.838Z,7.75
2022-10-22T06:01:16.055Z,8.77
2022-10-22T06:03:44.391Z,8.25
2022-10-22T06:06:31.808Z,8.20
2022-10-22T06:09:03.722Z,8.87
2022-10-22T06:11:34.157Z,9.10
2022-10-22T06:14:02.634Z,9.48
2022-10-22T06:16:30.559Z,9.70
2022-10-22T06:19:00.348Z,9.10
2022-10-22T06:21:27.464Z,8.20
2022-10-22T06:23:58.455Z,8.25
2022-10-22T06:26:25.345Z,8.57
2022-10-22T06:28:52.170Z,8.27
2022-10-22T06:31:18.936Z,7.72
2022-10-22T06:33:45.665Z,7.67
2022-10-22T06:36:15.600Z,7.82
2022-10-22T06:38:43.048Z,11.38
2022-10-22T06:41:15.754Z,11.65
2022-10-22T06:43:46.939Z,8.57
2022-10-22T06:46:20.683Z,7.80
2022-10-22T06:48:56.241Z,6.82
2022-10-22T06:51:23.240Z,6.95
2022-10-22T06:53:50.369Z,6.72
2022-10-22T06:56:23.097Z,6.65
2022-10-22T06:58:51.254Z,6.87
2022-10-22T07:01:20.922Z,6.40
2022-10-22T07:03:49.870Z,7.25
2022-10-22T07:06:16.799Z,6.85
2022-10-22T07:08:43.963Z,7.28
2022-10-22T07:11:14.317Z,7.57
2022-10-22T07:13:41.477Z,7.15
2022-10-22T07:16:09.137Z,6.78
2022-10-22T07:18:37.348Z,7.80
2022-10-22T07:21:05.643Z,7.57
2022-10-22T07:23:32.686Z,7.40
2022-10-22T07:25:59.552Z,7.60
2022-10-22T07:28:28.068Z,7.35
2022-10-22T07:30:55.072Z,7.07
2022-10-22T07:33:22.275Z,7.40
2022-10-22T07:35:49.207Z,5.83
2022-10-22T07:38:15.938Z,6.87
2022-10-22T07:40:42.770Z,6.75
2022-10-22T07:43:10.955Z,7.00
2022-10-22T07:45:37.840Z,6.57
2022-10-22T07:48:05.014Z,5.97
2022-10-22T07:50:31.898Z,6.40
2022-10-22T07:52:58.768Z,6.50
2022-10-22T07:55:26.065Z,5.75
2022-10-22T07:57:53.484Z,5.60
2022-10-22T08:00:23.125Z,5.80
2022-10-22T08:02:52.138Z,6.00
2022-10-22T08:05:19.037Z,5.50
2022-10-22T08:07:45.968Z,5.53
2022-10-22T08:10:13.465Z,5.28
2022-10-22T08:12:41.468Z,5.80
2022-10-22T08:15:09.713Z,6.22
2022-10-22T08:17:36.672Z,6.60
2022-10-22T08:20:03.915Z,6.82
2022-10-22T08:22:30.851Z,6.20
2022-10-22T08:24:57.669Z,5.43
2022-10-22T08:27:24.442Z,5.72
2022-10-22T08:29:51.327Z,5.60
2022-10-22T08:32:18.127Z,5.62
2022-10-22T08:34:44.943Z,5.45
2022-10-22T08:37:14.467Z,5.43
2022-10-22T08:39:41.616Z,5.60
2022-10-22T08:42:26.545Z,5.75
2022-10-22T08:45:12.973Z,5.20
2022-10-22T08:48:12.176Z,5.80
2022-10-22T08:50:45.499Z,5.83
2022-10-22T08:53:16.304Z,6.28
2022-10-22T08:55:43.789Z,6.30
2022-10-22T08:58:35.967Z,6.18
2022-10-22T09:01:21.155Z,6.50
2022-10-22T09:03:53.702Z,6.03
2022-10-22T09:06:24.442Z,5.53
2022-10-22T09:08:53.381Z,5.72
2022-10-22T09:11:27.269Z,5.87
2022-10-22T09:13:55.595Z,5.25
2022-10-22T09:16:26.513Z,5.30
2022-10-22T09:19:18.223Z,5.87
2022-10-22T09:22:12.695Z,6.53
2022-10-22T09:24:48.755Z,5.45
2022-10-22T09:27:19.238Z,6.00
2022-10-22T09:29:47.873Z,6.13
2022-10-22T09:32:16.874Z,5.70
2022-10-22T09:34:48.120Z,5.97
2022-10-22T09:37:18.454Z,6.53
2022-10-22T09:39:53.604Z,6.43
2022-10-22T09:42:21.329Z,6.30
2022-10-22T09:44:58.850Z,6.12
2022-10-22T09:47:43.005Z,6.05
2022-10-22T09:50:38.407Z,6.47
2022-10-22T09:53:38.578Z,5.97
2022-10-22T09:56:27.920Z,5.60
2022-10-22T09:58:58.793Z,6.07
2022-10-22T10:01:29.800Z,6.03
2022-10-22T10:04:09.913Z,6.53
2022-10-22T10:06:41.940Z,9.35
2022-10-22T10:09:21.551Z,6.80
2022-10-22T10:12:42.812Z,6.65
2022-10-22T10:15:46.524Z,7.47
2022-10-22T10:18:44.315Z,7.20
2022-10-22T10:21:29.684Z,7.90
2022-10-22T10:24:17.341Z,8.10
2022-10-22T10:27:00.135Z,6.60
2022-10-22T10:29:49.693Z,6.55
2022-10-22T10:32:48.323Z,7.10
2022-10-22T10:35:24.333Z,6.75
2022-10-22T10:38:05.111Z,6.40
2022-10-22T10:40:39.538Z,6.68
2022-10-22T10:43:21.175Z,7.80
2022-10-22T10:46:37.211Z,6.93
2022-10-22T10:49:04.078Z,7.12
2022-10-22T10:51:48.698Z,6.97
2022-10-22T10:54:24.309Z,7.05
2022-10-22T10:56:56.621Z,7.82
2022-10-22T10:59:39.179Z,7.70
2022-10-22T11:02:24.958Z,7.97
2022-10-22T11:05:28.886Z,7.80
2022-10-22T11:08:10.216Z,7.03
2022-10-22T11:10:39.790Z,7.37
2022-10-22T11:13:14.405Z,7.18
2022-10-22T11:15:43.230Z,7.50
2022-10-22T11:18:27.575Z,7.87
2022-10-22T11:21:10.968Z,7.95
2022-10-22T11:23:51.557Z,8.48
2022-10-22T11:26:37.418Z,8.63
2022-10-22T11:29:09.686Z,7.20
2022-10-22T11:31:37.086Z,7.00
2022-10-22T11:34:35.045Z,8.23
2022-10-22T11:37:04.908Z,7.62
2022-10-22T11:39:40.797Z,8.10
2022-10-22T11:42:16.199Z,7.30
2022-10-22T11:45:01.931Z,7.73
2022-10-22T11:47:33.589Z,7.18
2022-10-22T11:50:25.159Z,7.62
2022-10-22T11:53:00.637Z,8.02
2022-10-22T11:55:32.622Z,7.85
2022-10-22T11:58:01.961Z,7.63
2022-10-22T12:00:47.948Z,7.18
2022-10-22T12:03:44.521Z,7.97
2022-10-22T12:06:12.075Z,7.43
2022-10-22T12:08:46.582Z,8.60
2022-10-22T12:11:40.095Z,8.13
2022-10-22T12:14:29.783Z,8.65
2022-10-22T12:17:01.853Z,8.98
2022-10-22T12:19:40.588Z,8.85
2022-10-22T12:22:10.307Z,7.87
2022-10-22T12:24:40.749Z,8.40
2022-10-22T12:27:27.233Z,7.55
2022-10-22T12:29:56.965Z,8.25
2022-10-22T12:32:29.096Z,7.32
2022-10-22T12:34:55.940Z,7.37
2022-10-22T12:37:22.706Z,7.17
2022-10-22T12:39:49.545Z,8.20
2022-10-22T12:42:18.163Z,8.30
2022-10-22T12:44:45.146Z,8.07
2022-10-22T12:47:17.888Z,8.23
2022-10-22T12:49:48.620Z,8.10
2022-10-22T12:52:22.335Z,7.75
2022-10-22T12:54:55.101Z,7.03
2022-10-22T12:57:22.155Z,6.62
2022-10-22T12:59:51.846Z,7.05
2022-10-22T13:02:24.758Z,6.70
2022-10-22T13:05:19.540Z,7.37
2022-10-22T13:08:22.563Z,6.85
2022-10-22T13:10:52.266Z,6.93
2022-10-22T13:13:43.460Z,7.15
2022-10-22T13:16:19.875Z,21.63
2022-10-22T13:18:48.289Z,13.65
2022-10-22T13:21:27.034Z,11.45
2022-10-22T13:23:59.846Z,10.70
2022-10-22T13:26:35.924Z,9.25
2022-10-22T13:29:11.013Z,8.90
2022-10-22T13:31:46.215Z,8.77
2022-10-22T13:34:17.764Z,8.65
2022-10-22T13:36:44.731Z,7.97
2022-10-22T13:39:23.474Z,7.68
2022-10-22T13:41:50.806Z,7.37
2022-10-22T13:44:18.874Z,8.25
2022-10-22T13:46:47.426Z,7.87
2022-10-22T13:49:17.898Z,7.85
2022-10-22T13:51:45.109Z,7.68
2022-10-22T13:54:18.098Z,8.07
2022-10-22T13:56:45.133Z,7.53
2022-10-22T13:59:11.970Z,7.97
2022-10-22T14:01:39.149Z,7.00
2022-10-22T14:04:08.506Z,8.43
2022-10-22T14:09:12.024Z,7.85
2022-10-22T14:11:38.857Z,7.62
2022-10-22T14:14:08.919Z,8.05
2022-10-22T14:16:37.654Z,8.43
2022-10-22T14:19:07.037Z,8.43
2022-10-22T14:21:37.186Z,9.02
2022-10-22T14:24:06.131Z,9.18
2022-10-22T14:26:35.533Z,9.30
2022-10-22T14:29:11.505Z,9.70
2022-10-22T14:31:44.708Z,8.37
2022-10-22T14:34:14.611Z,10.13
2022-10-22T14:36:44.062Z,9.50
2022-10-22T14:39:11.776Z,9.52
2022-10-22T14:41:39.116Z,9.20
2022-10-22T14:44:06.050Z,10.13
2022-10-22T14:46:33.041Z,9.20
2022-10-22T14:49:00.006Z,9.27
2022-10-22T14:51:26.873Z,8.43
2022-10-22T14:53:53.801Z,7.75
2022-10-22T14:56:23.474Z,7.87
2022-10-22T14:58:50.935Z,7.87
2022-10-22T15:01:17.928Z,7.93
2022-10-22T15:03:44.902Z,7.70
2022-10-22T15:06:12.115Z,7.65
2022-10-22T15:08:39.530Z,8.23
2022-10-22T15:11:09.883Z,8.25
2022-10-22T15:13:37.075Z,8.82
2022-10-22T15:16:09.489Z,8.70
2022-10-22T15:18:37.439Z,8.48
2022-10-22T15:21:07.924Z,7.90
2022-10-22T15:23:36.378Z,7.40
2022-10-22T15:26:03.734Z,8.25
2022-10-22T15:28:30.835Z,8.25
2022-10-22T15:31:00.375Z,8.57
2022-10-22T15:33:30.263Z,7.90
2022-10-22T15:35:58.201Z,7.65
2022-10-22T15:41:04.583Z,7.35
2022-10-22T15:43:34.165Z,8.20
2022-10-22T15:46:09.488Z,8.07
2022-10-22T15:48:37.136Z,8.40
2022-10-22T15:51:15.710Z,9.25
2022-10-22T15:53:43.011Z,8.82
2022-10-22T15:56:12.079Z,11.02
2022-10-22T15:58:39.226Z,11.77
2022-10-22T16:01:10.197Z,11.12
2022-10-22T16:03:38.211Z,11.45
2022-10-22T16:06:06.460Z,9.00
2022-10-22T16:08:34.355Z,9.73
2022-10-22T16:11:01.792Z,8.77
2022-10-22T16:13:29.061Z,10.02
2022-10-22T16:15:56.087Z,9.63
2022-10-22T16:18:23.768Z,9.10
2022-10-22T16:20:50.946Z,9.48
2022-10-22T16:23:19.313Z,9.80
2022-10-22T16:25:46.820Z,10.63
2022-10-22T16:28:14.694Z,19.58
2022-10-22T16:30:42.616Z,19.92
2022-10-22T16:33:11.195Z,21.12
2022-10-22T16:35:43.020Z,22.83
2022-10-22T16:38:11.053Z,21.62
2022-10-22T16:40:45.615Z,12.88
2022-10-22T16:43:13.827Z,11.55
2022-10-22T16:45:48.226Z,12.73
2022-10-22T16:48:19.690Z,11.70
2022-10-22T16:50:47.021Z,10.80
2022-10-22T16:53:14.403Z,11.75
2022-10-22T16:55:42.559Z,12.15
2022-10-22T16:58:10.320Z,14.13
2022-10-22T17:00:41.885Z,12.33
2022-10-22T17:03:11.773Z,11.85
2022-10-22T17:05:44.292Z,13.77
2022-10-22T17:08:12.762Z,13.75
2022-10-22T17:10:41.908Z,14.30
2022-10-22T17:13:09.663Z,14.47
2022-10-22T17:15:38.224Z,15.48
2022-10-22T17:18:05.957Z,15.30
2022-10-22T17:20:35.413Z,15.65
2022-10-22T17:23:04.510Z,13.57
2022-10-22T17:25:42.306Z,14.30
2022-10-22T17:28:11.972Z,11.60
2022-10-22T17:30:41.059Z,12.65
2022-10-22T17:33:09.282Z,13.02
2022-10-22T17:35:41.801Z,13.48
2022-10-22T17:38:09.725Z,15.40
2022-10-22T17:40:39.101Z,12.60
2022-10-22T17:43:06.467Z,13.95
2022-10-22T17:45:35.458Z,11.93
2022-10-22T17:48:05.681Z,12.10
2022-10-22T17:50:35.273Z,11.93
2022-10-22T17:53:04.134Z,12.25
2022-10-22T17:55:35.104Z,11.60
2022-10-22T17:58:05.772Z,10.85
2022-10-22T18:00:43.341Z,10.35
2022-10-22T18:03:12.195Z,11.30
2022-10-22T18:05:40.283Z,11.85
2022-10-22T18:08:09.500Z,11.73
2022-10-22T18:10:40.728Z,11.70
2022-10-22T18:13:09.800Z,11.20
2022-10-22T18:15:37.641Z,10.63
2022-10-22T18:18:06.401Z,10.85
2022-10-22T18:20:34.829Z,10.80
2022-10-22T18:23:04.585Z,10.10
2022-10-22T18:28:02.491Z,10.17
2022-10-22T18:30:32.324Z,11.55
2022-10-22T18:33:00.581Z,12.02
2022-10-22T18:35:32.457Z,13.50
2022-10-22T18:38:00.827Z,12.95
2022-10-22T18:40:30.589Z,12.40
2022-10-22T18:42:58.696Z,13.27
2022-10-22T18:45:26.622Z,13.82
2022-10-22T18:47:55.387Z,15.60
2022-10-22T18:50:23.626Z,14.73
2022-10-22T18:52:52.405Z,14.77
2022-10-22T18:55:20.566Z,15.02
2022-10-22T18:57:48.791Z,15.70
2022-10-22T19:00:20.274Z,15.98
2022-10-22T19:02:48.923Z,16.08
2022-10-22T19:05:18.466Z,15.53
2022-10-22T19:07:47.441Z,15.98
2022-10-22T19:10:20.575Z,23.95
2022-10-22T19:12:50.092Z,22.42
2022-10-22T19:15:18.733Z,25.10
2022-10-22T19:17:46.744Z,22.57
2022-10-22T19:20:15.657Z,19.70
2022-10-22T19:22:47.517Z,17.52
2022-10-22T19:25:17.624Z,16.30
2022-10-22T19:27:45.932Z,15.55
2022-10-22T19:30:14.010Z,15.37
2022-10-22T19:32:42.744Z,15.05
2022-10-22T19:35:10.856Z,14.57
2022-10-22T19:37:39.975Z,14.20
2022-10-22T19:40:12.975Z,14.15
2022-10-22T19:42:41.138Z,14.20
2022-10-22T19:45:12.938Z,13.68
2022-10-22T19:47:42.192Z,13.38
2022-10-22T19:50:10.915Z,13.62
2022-10-22T19:52:38.414Z,15.95
2022-10-22T19:55:07.597Z,15.00
2022-10-22T19:57:36.367Z,23.85
2022-10-22T20:00:05.447Z,19.50
2022-10-22T20:02:33.284Z,15.90
2022-10-22T20:05:01.033Z,18.30
2022-10-22T20:07:29.276Z,15.83
2022-10-22T20:09:56.689Z,15.90
2022-10-22T20:12:24.916Z,15.43
2022-10-22T20:14:56.429Z,15.07
2022-10-22T20:17:25.254Z,16.27
2022-10-22T20:19:52.723Z,15.67
2022-10-22T20:22:20.123Z,15.93
2022-10-22T20:24:47.536Z,15.70
2022-10-22T20:27:14.962Z,16.50
2022-10-22T20:29:42.701Z,15.77
2022-10-22T20:32:10.059Z,17.07
2022-10-22T20:34:37.624Z,15.60
2022-10-22T20:37:04.874Z,15.95
2022-10-22T20:39:32.535Z,15.00
2022-10-22T20:41:59.963Z,15.23
2022-10-22T20:44:30.544Z,16.07
2022-10-22T20:49:33.268Z,20.30
2022-10-22T20:52:00.820Z,20.12
2022-10-22T20:54:28.190Z,16.95
2022-10-22T20:56:55.759Z,15.90
2022-10-22T20:59:23.719Z,16.35
2022-10-22T21:01:52.801Z,18.20
2022-10-22T21:04:21.328Z,17.52
2022-10-22T21:06:50.188Z,18.23
2022-10-22T21:09:17.120Z,18.97
2022-10-22T21:11:44.539Z,19.35
2022-10-22T21:14:13.621Z,19.35
2022-10-22T21:16:50.055Z,18.62
2022-10-22T21:19:21.912Z,20.98
2022-10-22T21:21:49.477Z,29.33
2022-10-22T21:24:16.392Z,22.02
2022-10-22T21:26:43.679Z,19.67
2022-10-22T21:29:12.233Z,18.73
2022-10-22T21:31:40.514Z,19.27
2022-10-22T21:34:07.470Z,17.93
2022-10-22T21:36:34.382Z,19.05
2022-10-22T21:39:02.153Z,22.37
2022-10-22T21:41:29.111Z,21.95
2022-10-22T21:43:56.157Z,22.70
2022-10-22T21:46:25.506Z,24.53
2022-10-22T21:48:54.626Z,21.40
2022-10-22T21:51:22.707Z,21.95
2022-10-22T21:53:49.605Z,19.23
2022-10-22T21:56:19.836Z,19.35
2022-10-22T21:58:47.403Z,17.57
2022-10-22T22:01:16.721Z,18.83
2022-10-22T22:03:46.139Z,17.55
2022-10-22T22:06:13.838Z,18.50
2022-10-22T22:08:41.012Z,18.85
2022-10-22T22:11:19.543Z,18.13
2022-10-22T22:13:48.769Z,20.27
2022-10-22T22:16:21.194Z,21.37
2022-10-22T22:18:51.067Z,21.12
2022-10-22T22:21:20.003Z,21.58
2022-10-22T22:23:49.398Z,21.27
2022-10-22T22:26:22.085Z,20.77
2022-10-22T22:28:51.941Z,20.75
2022-10-22T22:31:32.101Z,21.23
2022-10-22T22:33:59.961Z,20.95
2022-10-22T22:36:26.787Z,20.77
2022-10-22T22:38:55.999Z,22.15
2022-10-22T22:41:23.022Z,21.83
2022-10-22T22:43:49.825Z,22.67
2022-10-22T22:46:16.898Z,23.08
2022-10-22T22:48:43.727Z,23.67
2022-10-22T22:51:11.054Z,25.05
2022-10-22T22:53:37.926Z,24.25
2022-10-22T22:56:04.766Z,25.00
2022-10-22T22:58:31.597Z,22.87
2022-10-22T23:01:12.364Z,22.80
2022-10-22T23:03:39.236Z,22.48
2022-10-22T23:06:06.385Z,24.23
2022-10-22T23:08:33.857Z,23.87
2022-10-22T23:11:09.711Z,25.80
2022-10-22T23:13:37.227Z,24.73
2022-10-22T23:16:09.895Z,24.37
2022-10-22T23:18:36.732Z,24.30
2022-10-22T23:21:11.431Z,24.02
2022-10-22T23:23:38.207Z,23.65
2022-10-22T23:26:05.181Z,22.27
2022-10-22T23:28:32.472Z,21.08
2022-10-22T23:30:59.347Z,21.20
2022-10-22T23:33:26.679Z,20.17
2022-10-22T23:35:53.522Z,19.10
2022-10-22T23:38:20.582Z,21.60
2022-10-22T23:40:54.316Z,21.83
2022-10-22T23:43:21.094Z,21.85
2022-10-22T23:45:47.882Z,21.25
2022-10-22T23:48:17.130Z,22.35
2022-10-22T23:50:44.158Z,22.33
2022-10-22T23:53:11.112Z,22.62
2022-10-22T23:55:39.600Z,28.40
2022-10-22T23:58:06.817Z,27.55
